createdAt,value
2018-09-26T00:00:39.853Z,99908.98
2018-09-26T00:01:50.587Z,99915.42
2018-09-26T00:02:57.896Z,99913.58
2018-09-26T00:04:04.676Z,99916.29
2018-09-26T00:05:07.389Z,99915.22
2018-09-26T00:06:12.347Z,99916.45
2018-09-26T00:07:15.093Z,99921.24
2018-09-26T00:08:19.359Z,99917.70
2018-09-26T00:09:24.662Z,99912.94
2018-09-26T00:10:27.743Z,99916.73
2018-09-26T00:11:30.464Z,99913.39
2018-09-26T00:12:33.202Z,99920.62
2018-09-26T00:13:35.939Z,99919.98
2018-09-26T00:14:40.430Z,99917.80
2018-09-26T00:15:43.202Z,99912.86
2018-09-26T00:16:45.922Z,99913.12
2018-09-26T00:17:48.617Z,99913.53
2018-09-26T00:18:51.375Z,99923.81
2018-09-26T00:19:54.223Z,99920.27
2018-09-26T00:20:58.449Z,99916.30
2018-09-26T00:22:01.528Z,99916.84
2018-09-26T00:23:04.235Z,99908.63
2018-09-26T00:24:07.055Z,99910.24
2018-09-26T00:25:09.773Z,99904.91
2018-09-26T00:26:12.511Z,99901.41
2018-09-26T00:27:15.882Z,99898.16
2018-09-26T00:28:18.603Z,99896.70
2018-09-26T00:29:21.321Z,99898.94
2018-09-26T00:30:24.027Z,99897.62
2018-09-26T00:31:26.822Z,99896.79
2018-09-26T00:32:29.615Z,99900.66
2018-09-26T00:33:32.654Z,99903.24
2018-09-26T00:34:35.394Z,99909.36
2018-09-26T00:35:38.192Z,99901.01
2018-09-26T00:36:40.907Z,99901.39
2018-09-26T00:37:43.643Z,99898.23
2018-09-26T00:38:46.367Z,99906.19
2018-09-26T00:39:49.423Z,99909.66
2018-09-26T00:40:52.141Z,99898.82
2018-09-26T00:41:54.901Z,99903.20
2018-09-26T00:42:57.602Z,99896.20
2018-09-26T00:44:00.312Z,99894.23
2018-09-26T00:45:03.011Z,99891.77
2018-09-26T00:46:06.063Z,99891.19
2018-09-26T00:47:08.794Z,99896.29
2018-09-26T00:48:11.510Z,99893.34
2018-09-26T00:49:14.253Z,99895.54
2018-09-26T00:50:16.952Z,99891.48
2018-09-26T00:51:19.683Z,99892.03
2018-09-26T00:52:22.692Z,99900.67
2018-09-26T00:53:25.399Z,99898.02
2018-09-26T00:54:28.115Z,99905.86
2018-09-26T00:55:31.352Z,99901.73
2018-09-26T00:56:35.072Z,99901.51
2018-09-26T00:57:37.774Z,99901.73
2018-09-26T00:58:40.751Z,99905.34
2018-09-26T00:59:43.533Z,99906.45
2018-09-26T01:00:46.267Z,99904.94
2018-09-26T01:01:48.982Z,99909.44
2018-09-26T01:02:51.699Z,99914.79
2018-09-26T01:03:54.417Z,99915.55
2018-09-26T01:04:57.421Z,99914.73
2018-09-26T01:06:00.158Z,99912.38
2018-09-26T01:07:02.895Z,99907.62
2018-09-26T01:08:05.618Z,99903.48
2018-09-26T01:09:08.359Z,99899.19
2018-09-26T01:10:11.510Z,99902.13
2018-09-26T01:11:14.511Z,99897.70
2018-09-26T01:12:17.264Z,99897.20
2018-09-26T01:13:20.080Z,99889.70
2018-09-26T01:14:22.863Z,99891.86
2018-09-26T01:15:25.551Z,99893.80
2018-09-26T01:16:28.260Z,99893.50
2018-09-26T01:17:31.321Z,99889.70
2018-09-26T01:18:34.052Z,99891.55
2018-09-26T01:19:36.763Z,99885.87
2018-09-26T01:20:39.483Z,99883.93
2018-09-26T01:21:42.216Z,99879.77
2018-09-26T01:22:44.952Z,99879.55
2018-09-26T01:23:47.951Z,99874.74
2018-09-26T01:24:50.694Z,99875.02
2018-09-26T01:25:53.432Z,99868.62
2018-09-26T01:26:56.148Z,99871.08
2018-09-26T01:27:58.879Z,99873.13
2018-09-26T01:29:01.662Z,99874.36
2018-09-26T01:30:06.370Z,99866.20
2018-09-26T01:31:09.102Z,99864.94
2018-09-26T01:32:11.830Z,99861.60
2018-09-26T01:33:14.545Z,99861.02
2018-09-26T01:34:17.260Z,99856.50
2018-09-26T01:35:19.987Z,99849.01
2018-09-26T01:36:23.322Z,99847.62
2018-09-26T01:37:26.045Z,99842.27
2018-09-26T01:38:28.782Z,99836.74
2018-09-26T01:39:31.508Z,99843.61
2018-09-26T01:40:34.212Z,99829.12
2018-09-26T01:41:36.942Z,99826.67
2018-09-26T01:42:39.980Z,99825.95
2018-09-26T01:43:42.708Z,99821.78
2018-09-26T01:44:45.414Z,99816.42
2018-09-26T01:45:48.164Z,99816.14
2018-09-26T01:46:50.876Z,99807.34
2018-09-26T01:47:53.614Z,99817.07
2018-09-26T01:48:56.622Z,99812.67
2018-09-26T01:49:59.353Z,99812.20
2018-09-26T01:51:02.092Z,99813.97
2018-09-26T01:52:04.803Z,99804.67
2018-09-26T01:53:07.658Z,99809.09
2018-09-26T01:54:10.395Z,99807.22
2018-09-26T01:55:13.521Z,99804.23
2018-09-26T01:56:16.237Z,99800.15
2018-09-26T01:57:20.637Z,99800.66
2018-09-26T01:58:23.741Z,99801.83
2018-09-26T01:59:26.454Z,99797.20
2018-09-26T02:00:29.163Z,99794.79
2018-09-26T02:01:32.182Z,99795.15
2018-09-26T02:02:35.090Z,99791.88
2018-09-26T02:03:37.794Z,99794.79
2018-09-26T02:04:40.668Z,99799.31
2018-09-26T02:05:43.616Z,99802.30
2018-09-26T02:06:46.565Z,99809.48
2018-09-26T02:07:50.046Z,99812.98
2018-09-26T02:08:52.813Z,99805.44
2018-09-26T02:09:55.548Z,99804.63
2018-09-26T02:10:58.308Z,99803.91
2018-09-26T02:12:01.942Z,99809.41
2018-09-26T02:13:04.661Z,99807.22
2018-09-26T02:14:07.718Z,99806.41
2018-09-26T02:15:10.439Z,99809.84
2018-09-26T02:16:13.287Z,99809.14
2018-09-26T02:17:16.003Z,99811.28
2018-09-26T02:18:18.715Z,99815.84
2018-09-26T02:19:21.447Z,99807.83
2018-09-26T02:20:24.518Z,99813.20
2018-09-26T02:21:27.276Z,99811.75
2018-09-26T02:22:29.997Z,99814.80
2018-09-26T02:23:32.822Z,99809.39
2018-09-26T02:24:35.601Z,99814.27
2018-09-26T02:25:38.300Z,99816.22
2018-09-26T02:26:41.324Z,99814.02
2018-09-26T02:27:45.055Z,99801.80
2018-09-26T02:28:47.764Z,99804.60
2018-09-26T02:29:50.478Z,99805.27
2018-09-26T02:30:53.217Z,99798.71
2018-09-26T02:31:56.035Z,99798.67
2018-09-26T02:32:59.093Z,99795.25
2018-09-26T02:34:01.837Z,99799.30
2018-09-26T02:35:04.595Z,99805.02
2018-09-26T02:36:07.304Z,99795.37
2018-09-26T02:37:10.474Z,99792.93
2018-09-26T02:38:13.242Z,99796.89
2018-09-26T02:39:16.248Z,99795.10
2018-09-26T02:40:18.994Z,99794.94
2018-09-26T02:41:21.707Z,99796.05
2018-09-26T02:42:24.416Z,99789.90
2018-09-26T02:43:27.140Z,99788.39
2018-09-26T02:44:29.824Z,99786.41
2018-09-26T02:45:32.846Z,99790.45
2018-09-26T02:46:35.543Z,99786.58
2018-09-26T02:47:38.240Z,99786.95
2018-09-26T02:48:45.980Z,99788.05
2018-09-26T02:49:48.744Z,99787.33
2018-09-26T02:50:51.464Z,99787.70
2018-09-26T02:51:54.454Z,99790.11
2018-09-26T02:52:57.204Z,99787.97
2018-09-26T02:53:59.920Z,99790.48
2018-09-26T02:55:02.668Z,99787.50
2018-09-26T02:56:05.369Z,99792.77
2018-09-26T02:57:10.855Z,99786.32
2018-09-26T02:58:14.432Z,99783.03
2018-09-26T02:59:17.139Z,99787.92
2018-09-26T03:00:20.493Z,99783.45
2018-09-26T03:01:23.255Z,99784.59
2018-09-26T03:02:26.091Z,99793.73
2018-09-26T03:03:28.802Z,99790.66
2018-09-26T03:04:31.993Z,99785.23
2018-09-26T03:05:34.720Z,99787.66
2018-09-26T03:06:37.452Z,99787.29
2018-09-26T03:07:40.185Z,99789.44
2018-09-26T03:08:42.962Z,99787.47
2018-09-26T03:09:45.676Z,99784.52
2018-09-26T03:10:48.701Z,99780.97
2018-09-26T03:11:51.409Z,99784.84
2018-09-26T03:12:54.188Z,99786.45
2018-09-26T03:13:56.931Z,99788.52
2018-09-26T03:14:59.702Z,99790.79
2018-09-26T03:16:02.424Z,99780.77
2018-09-26T03:17:05.413Z,99780.55
2018-09-26T03:18:08.875Z,99781.06
2018-09-26T03:19:11.616Z,99783.38
2018-09-26T03:20:14.335Z,99781.48
2018-09-26T03:21:17.076Z,99786.16
2018-09-26T03:22:19.830Z,99792.59
2018-09-26T03:23:22.866Z,99795.52
2018-09-26T03:24:25.611Z,99792.52
2018-09-26T03:25:29.262Z,99796.84
2018-09-26T03:26:32.020Z,99786.15
2018-09-26T03:27:34.736Z,99786.81
2018-09-26T03:28:37.491Z,99791.62
2018-09-26T03:29:40.489Z,99784.64
2018-09-26T03:30:43.280Z,99782.48
2018-09-26T03:31:46.014Z,99777.35
2018-09-26T03:32:48.785Z,99780.22
2018-09-26T03:33:51.605Z,99780.84
2018-09-26T03:34:54.286Z,99778.92
2018-09-26T03:35:57.310Z,99784.31
2018-09-26T03:37:00.053Z,99781.48
2018-09-26T03:38:02.770Z,99778.36
2018-09-26T03:39:05.607Z,99776.81
2018-09-26T03:40:08.368Z,99778.36
2018-09-26T03:41:11.912Z,99771.25
2018-09-26T03:42:14.934Z,99766.70
2018-09-26T03:43:17.657Z,99766.11
2018-09-26T03:44:20.381Z,99771.59
2018-09-26T03:45:23.202Z,99776.50
2018-09-26T03:46:25.991Z,99777.31
2018-09-26T03:47:28.696Z,99776.25
2018-09-26T03:48:31.888Z,99781.44
2018-09-26T03:49:34.593Z,99782.27
2018-09-26T03:50:37.334Z,99782.78
2018-09-26T03:51:40.068Z,99784.72
2018-09-26T03:52:42.837Z,99780.85
2018-09-26T03:53:45.631Z,99778.62
2018-09-26T03:54:48.645Z,99772.37
2018-09-26T03:55:51.462Z,99767.63
2018-09-26T03:56:54.218Z,99765.77
2018-09-26T03:57:56.967Z,99770.95
2018-09-26T03:58:59.676Z,99773.97
2018-09-26T04:00:02.421Z,99772.55
2018-09-26T04:01:05.434Z,99775.39
2018-09-26T04:02:08.154Z,99775.98
2018-09-26T04:03:10.882Z,99771.44
2018-09-26T04:04:13.627Z,99781.75
2018-09-26T04:05:16.343Z,99785.93
2018-09-26T04:06:19.068Z,99776.05
2018-09-26T04:07:22.162Z,99779.95
2018-09-26T04:08:24.896Z,99787.87
2018-09-26T04:09:27.610Z,99783.97
2018-09-26T04:10:30.399Z,99787.84
2018-09-26T04:11:33.108Z,99782.12
2018-09-26T04:12:35.940Z,99781.34
2018-09-26T04:13:39.317Z,99773.53
2018-09-26T04:14:42.072Z,99768.46
2018-09-26T04:15:59.039Z,99772.17
2018-09-26T04:17:01.803Z,99772.19
2018-09-26T04:18:04.529Z,99777.80
2018-09-26T04:19:07.366Z,99782.03
2018-09-26T04:20:10.430Z,99782.17
2018-09-26T04:21:13.208Z,99783.18
2018-09-26T04:22:15.961Z,99779.59
2018-09-26T04:23:18.719Z,99776.84
2018-09-26T04:24:21.435Z,99769.09
2018-09-26T04:25:26.682Z,99768.61
2018-09-26T04:26:29.900Z,99783.56
2018-09-26T04:27:32.751Z,99795.16
2018-09-26T04:28:35.546Z,99794.00
2018-09-26T04:29:38.692Z,99800.16
2018-09-26T04:30:41.949Z,99802.05
2018-09-26T04:31:45.397Z,99795.80
2018-09-26T04:32:49.895Z,99793.72
2018-09-26T04:33:53.230Z,99791.76
2018-09-26T04:34:57.680Z,99793.24
2018-09-26T04:36:01.512Z,99798.05
2018-09-26T04:37:04.823Z,99802.57
2018-09-26T04:38:08.661Z,99800.77
2018-09-26T04:39:13.864Z,99795.72
2018-09-26T04:40:17.106Z,99803.05
2018-09-26T04:41:20.999Z,99802.25
2018-09-26T04:42:26.149Z,99800.72
2018-09-26T04:43:30.378Z,99792.98
2018-09-26T04:44:33.654Z,99789.39
2018-09-26T04:45:37.621Z,99796.84
2018-09-26T04:46:40.605Z,99799.95
2018-09-26T04:47:43.853Z,99805.91
2018-09-26T04:48:47.789Z,99809.41
2018-09-26T04:49:51.539Z,99814.06
2018-09-26T04:50:55.752Z,99809.38
2018-09-26T04:52:00.240Z,99805.84
2018-09-26T04:53:05.275Z,99812.67
2018-09-26T04:54:10.842Z,99810.27
2018-09-26T04:55:14.833Z,99812.81
2018-09-26T04:56:19.991Z,99805.42
2018-09-26T04:57:23.658Z,99808.11
2018-09-26T04:58:30.568Z,99808.78
2018-09-26T04:59:34.917Z,99804.75
2018-09-26T05:00:38.614Z,99800.41
2018-09-26T05:01:42.338Z,99805.59
2018-09-26T05:02:47.329Z,99804.59
2018-09-26T05:03:50.755Z,99804.59
2018-09-26T05:04:55.725Z,99806.52
2018-09-26T05:05:59.178Z,99805.78
2018-09-26T05:07:02.504Z,99800.69
2018-09-26T05:08:05.794Z,99798.66
2018-09-26T05:09:09.358Z,99791.55
2018-09-26T05:10:13.178Z,99785.93
2018-09-26T05:11:16.556Z,99788.09
2018-09-26T05:12:19.698Z,99785.84
2018-09-26T05:13:23.198Z,99783.70
2018-09-26T05:14:26.185Z,99780.80
2018-09-26T05:15:29.474Z,99774.44
2018-09-26T05:16:32.973Z,99768.15
2018-09-26T05:17:35.947Z,99762.67
2018-09-26T05:18:39.120Z,99761.72
2018-09-26T05:19:41.895Z,99747.03
2018-09-26T05:20:44.774Z,99751.63
2018-09-26T05:21:47.522Z,99755.45
2018-09-26T05:22:50.724Z,99764.67
2018-09-26T05:23:53.475Z,99781.71
2018-09-26T05:24:57.257Z,99792.52
2018-09-26T05:26:00.051Z,99788.99
2018-09-26T05:27:02.770Z,99786.89
2018-09-26T05:28:05.699Z,99783.45
2018-09-26T05:29:08.755Z,99792.48
2018-09-26T05:30:11.534Z,99793.93
2018-09-26T05:44:21.262Z,99767.88
2018-09-26T05:45:23.995Z,99766.48
2018-09-26T05:46:26.824Z,99763.88
2018-09-26T05:47:30.364Z,99758.95
2018-09-26T05:48:33.262Z,99765.90
2018-09-26T05:49:36.456Z,99759.12
2018-09-26T05:50:39.244Z,99756.01
2018-09-26T05:51:42.060Z,99761.22
2018-09-26T05:52:44.786Z,99760.38
2018-09-26T05:53:47.528Z,99763.88
2018-09-26T05:54:51.836Z,99763.79
2018-09-26T05:55:55.025Z,99759.97
2018-09-26T05:56:58.224Z,99762.58
2018-09-26T05:58:04.245Z,99757.34
2018-09-26T05:59:07.297Z,99765.80
2018-09-26T06:00:10.403Z,99758.72
2018-09-26T06:01:13.419Z,99764.46
2018-09-26T06:02:17.758Z,99776.12
2018-09-26T06:03:21.327Z,99785.14
2018-09-26T06:04:24.925Z,99778.66
2018-09-26T06:05:28.134Z,99778.81
2018-09-26T06:06:31.567Z,99778.72
2018-09-26T06:07:35.343Z,99772.70
2018-09-26T06:08:40.019Z,99764.80
2018-09-26T06:09:42.901Z,99763.00
2018-09-26T06:10:45.717Z,99767.16
2018-09-26T06:11:48.489Z,99770.95
2018-09-26T06:12:51.415Z,99785.98
2018-09-26T06:13:54.121Z,99780.55
2018-09-26T06:14:57.549Z,99785.77
2018-09-26T06:16:01.157Z,99787.53
2018-09-26T06:17:04.509Z,99788.84
2018-09-26T06:18:07.314Z,99793.59
2018-09-26T06:19:10.718Z,99790.08
2018-09-26T06:20:13.606Z,99787.45
2018-09-26T06:21:16.784Z,99786.66
2018-09-26T06:22:19.762Z,99784.03
2018-09-26T06:23:23.249Z,99783.73
2018-09-26T06:24:26.985Z,99776.20
2018-09-26T06:25:30.545Z,99775.50
2018-09-26T06:26:33.508Z,99780.75
2018-09-26T06:27:38.249Z,99779.50
2018-09-26T06:28:41.242Z,99773.15
2018-09-26T06:29:44.041Z,99774.09
2018-09-26T06:30:47.220Z,99779.97
2018-09-26T06:31:49.963Z,99778.26
2018-09-26T06:32:52.700Z,99780.70
2018-09-26T06:33:55.864Z,99780.80
2018-09-26T06:34:58.738Z,99783.24
2018-09-26T06:36:01.487Z,99781.83
2018-09-26T06:37:04.665Z,99784.78
2018-09-26T06:38:08.175Z,99788.22
2018-09-26T06:39:13.643Z,99785.55
2018-09-26T06:40:16.965Z,99789.55
2018-09-26T06:41:20.627Z,99783.17
2018-09-26T06:42:23.377Z,99777.97
2018-09-26T06:43:26.127Z,99780.47
2018-09-26T06:44:29.574Z,99788.42
2018-09-26T06:45:32.373Z,99786.02
2018-09-26T06:46:36.349Z,99787.08
2018-09-26T06:47:39.228Z,99783.08
2018-09-26T06:48:42.203Z,99784.53
2018-09-26T06:49:44.967Z,99782.05
2018-09-26T06:50:47.697Z,99785.41
2018-09-26T06:51:51.923Z,99784.91
2018-09-26T06:52:55.603Z,99776.41
2018-09-26T06:53:58.396Z,99778.38
2018-09-26T06:55:01.142Z,99778.29
2018-09-26T06:56:04.003Z,99779.47
2018-09-26T06:57:06.777Z,99780.31
2018-09-26T06:58:09.529Z,99784.42
2018-09-26T06:59:12.742Z,99773.14
2018-09-26T07:00:15.624Z,99771.91
2018-09-26T07:01:18.344Z,99780.19
2018-09-26T07:02:22.135Z,99771.61
2018-09-26T07:03:24.906Z,99768.38
2018-09-26T07:04:27.663Z,99768.09
2018-09-26T07:05:32.481Z,99771.61
2018-09-26T07:06:35.253Z,99771.61
2018-09-26T07:07:38.031Z,99779.75
2018-09-26T07:08:40.775Z,99779.48
2018-09-26T07:09:43.569Z,99780.59
2018-09-26T07:10:47.185Z,99777.05
2018-09-26T07:11:50.387Z,99778.41
2018-09-26T07:12:53.143Z,99781.91
2018-09-26T07:13:55.834Z,99773.77
2018-09-26T07:14:59.520Z,99778.40
2018-09-26T07:16:03.169Z,99774.33
2018-09-26T07:17:05.965Z,99767.80
2018-09-26T07:18:08.942Z,99772.84
2018-09-26T07:19:11.672Z,99768.09
2018-09-26T07:20:14.449Z,99764.04
2018-09-26T07:21:17.829Z,99764.82
2018-09-26T07:22:20.596Z,99768.79
2018-09-26T07:23:23.330Z,99765.72
2018-09-26T07:24:27.322Z,99768.27
2018-09-26T07:25:30.093Z,99768.64
2018-09-26T07:26:33.658Z,99774.34
2018-09-26T07:27:36.514Z,99772.03
2018-09-26T07:28:39.290Z,99778.92
2018-09-26T07:29:42.295Z,99779.61
2018-09-26T07:30:45.356Z,99774.44
2018-09-26T07:31:48.145Z,99774.68
2018-09-26T07:32:50.946Z,99770.38
2018-09-26T07:33:53.753Z,99766.28
2018-09-26T07:34:56.527Z,99767.09
2018-09-26T07:36:00.178Z,99750.80
2018-09-26T07:37:03.237Z,99763.03
2018-09-26T07:38:05.986Z,99762.52
2018-09-26T07:39:09.416Z,99759.41
2018-09-26T07:40:12.307Z,99753.88
2018-09-26T07:41:15.332Z,99757.05
2018-09-26T07:42:18.934Z,99754.11
2018-09-26T07:43:22.350Z,99754.56
2018-09-26T07:44:25.219Z,99748.16
2018-09-26T07:45:29.069Z,99750.70
2018-09-26T07:46:32.918Z,99749.52
2018-09-26T07:47:35.753Z,99758.11
2018-09-26T07:48:38.570Z,99759.18
2018-09-26T07:49:42.501Z,99756.25
2018-09-26T07:50:47.374Z,99758.48
2018-09-26T07:51:52.558Z,99760.98
2018-09-26T07:52:55.400Z,99763.23
2018-09-26T07:53:58.158Z,99769.52
2018-09-26T07:55:01.793Z,99762.89
2018-09-26T07:56:05.216Z,99766.89
2018-09-26T07:57:09.074Z,99765.41
2018-09-26T07:58:11.842Z,99768.34
2018-09-26T07:59:16.008Z,99762.80
2018-09-26T08:00:18.892Z,99768.52
2018-09-26T08:01:21.646Z,99764.09
2018-09-26T08:02:24.897Z,99761.95
2018-09-26T08:03:27.626Z,99759.73
2018-09-26T08:04:34.788Z,99758.43
2018-09-26T08:05:37.530Z,99758.19
2018-09-26T08:06:40.281Z,99756.77
2018-09-26T08:07:43.245Z,99751.83
2018-09-26T08:08:46.643Z,99753.92
2018-09-26T08:09:50.643Z,99756.85
2018-09-26T08:10:53.417Z,99756.84
2018-09-26T08:11:56.777Z,99759.66
2018-09-26T08:13:00.054Z,99759.28
2018-09-26T08:14:03.098Z,99761.51
2018-09-26T08:15:06.437Z,99763.72
2018-09-26T08:16:10.056Z,99760.25
2018-09-26T08:17:13.854Z,99758.97
2018-09-26T08:18:17.388Z,99765.79
2018-09-26T08:19:23.527Z,99760.13
2018-09-26T08:20:29.381Z,99758.19
2018-09-26T08:21:32.641Z,99754.19
2018-09-26T08:22:35.381Z,99752.34
2018-09-26T08:23:39.073Z,99753.92
2018-09-26T08:24:41.821Z,99746.34
2018-09-26T08:25:44.962Z,99749.04
2018-09-26T08:26:47.736Z,99749.81
2018-09-26T08:27:51.139Z,99742.89
2018-09-26T08:28:54.554Z,99746.89
2018-09-26T08:29:58.611Z,99744.11
2018-09-26T08:31:01.327Z,99745.42
2018-09-26T08:32:04.119Z,99752.70
2018-09-26T08:33:07.513Z,99750.28
2018-09-26T08:34:13.340Z,99750.86
2018-09-26T08:35:16.334Z,99748.11
2018-09-26T08:36:21.167Z,99747.63
2018-09-26T08:37:24.119Z,99758.28
2018-09-26T08:38:28.221Z,99757.92
2018-09-26T08:39:30.993Z,99763.41
2018-09-26T08:40:34.252Z,99765.89
2018-09-26T08:41:39.078Z,99764.30
2018-09-26T08:42:41.945Z,99751.20
2018-09-26T08:43:45.359Z,99748.74
2018-09-26T08:44:48.157Z,99751.13
2018-09-26T08:45:53.912Z,99745.08
2018-09-26T08:46:57.025Z,99750.34
2018-09-26T08:48:01.270Z,99744.20
2018-09-26T08:49:04.749Z,99740.58
2018-09-26T08:50:07.506Z,99745.11
2018-09-26T08:51:10.254Z,99743.83
2018-09-26T08:52:12.999Z,99737.55
2018-09-26T08:53:16.383Z,99738.81
2018-09-26T08:54:19.171Z,99739.66
2018-09-26T08:55:21.950Z,99741.75
2018-09-26T08:56:24.681Z,99748.66
2018-09-26T08:57:27.470Z,99745.19
2018-09-26T08:58:31.273Z,99750.03
2018-09-26T08:59:35.283Z,99752.77
2018-09-26T09:00:38.600Z,99747.89
2018-09-26T09:01:48.424Z,99745.44
2018-09-26T09:02:52.669Z,99744.64
2018-09-26T09:03:55.598Z,99741.55
2018-09-26T09:04:58.334Z,99743.92
2018-09-26T09:06:01.566Z,99736.55
2018-09-26T09:07:05.117Z,99739.01
2018-09-26T09:08:07.833Z,99738.02
2018-09-26T09:09:10.614Z,99736.05
2018-09-26T09:10:13.343Z,99732.86
2018-09-26T09:11:16.077Z,99734.62
2018-09-26T09:12:19.239Z,99735.03
2018-09-26T09:13:23.562Z,99737.48
2018-09-26T09:14:27.298Z,99732.80
2018-09-26T09:15:31.647Z,99735.73
2018-09-26T09:16:35.673Z,99730.34
2018-09-26T09:17:38.459Z,99724.03
2018-09-26T09:18:41.527Z,99725.85
2018-09-26T09:19:44.310Z,99722.52
2018-09-26T09:20:47.061Z,99737.70
2018-09-26T09:21:49.816Z,99735.09
2018-09-26T09:22:53.435Z,99734.48
2018-09-26T09:23:56.296Z,99729.61
2018-09-26T09:25:00.409Z,99732.72
2018-09-26T09:26:03.379Z,99736.38
2018-09-26T09:27:06.164Z,99727.92
2018-09-26T09:28:09.569Z,99724.75
2018-09-26T09:29:16.619Z,99716.92
2018-09-26T09:30:19.355Z,99723.12
2018-09-26T09:31:22.614Z,99724.45
2018-09-26T09:32:25.600Z,99721.39
2018-09-26T09:33:32.524Z,99721.10
2018-09-26T09:34:35.302Z,99724.13
2018-09-26T09:35:38.054Z,99724.38
2018-09-26T09:36:43.654Z,99716.54
2018-09-26T09:37:47.426Z,99721.39
2018-09-26T09:38:50.271Z,99730.05
2018-09-26T09:39:53.669Z,99724.17
2018-09-26T09:40:57.788Z,99724.02
2018-09-26T09:42:00.550Z,99723.84
2018-09-26T09:43:03.302Z,99716.67
2018-09-26T09:44:06.441Z,99719.13
2018-09-26T09:45:09.538Z,99717.45
2018-09-26T09:46:13.027Z,99717.33
2018-09-26T09:47:15.777Z,99723.30
2018-09-26T09:48:18.535Z,99726.83
2018-09-26T09:49:21.343Z,99714.89
2018-09-26T09:50:24.846Z,99715.57
2018-09-26T09:51:27.755Z,99718.65
2018-09-26T09:52:30.537Z,99711.99
2018-09-26T09:53:33.384Z,99717.66
2018-09-26T09:54:36.116Z,99709.22
2018-09-26T09:55:39.452Z,99712.36
2018-09-26T09:56:43.550Z,99711.34
2018-09-26T09:57:46.341Z,99716.14
2018-09-26T09:58:49.165Z,99712.59
2018-09-26T09:59:53.659Z,99709.27
2018-09-26T10:01:02.087Z,99711.66
2018-09-26T10:02:05.806Z,99712.23
2018-09-26T10:03:09.932Z,99715.62
2018-09-26T10:04:14.294Z,99717.91
2018-09-26T10:05:17.803Z,99716.69
2018-09-26T10:06:21.136Z,99721.45
2018-09-26T10:07:24.043Z,99724.86
2018-09-26T10:08:28.010Z,99720.38
2018-09-26T10:09:31.308Z,99721.52
2018-09-26T10:10:34.280Z,99725.03
2018-09-26T10:11:39.600Z,99721.56
2018-09-26T10:12:42.850Z,99721.61
2018-09-26T10:13:46.538Z,99719.84
2018-09-26T10:14:49.408Z,99716.50
2018-09-26T10:15:53.023Z,99714.43
2018-09-26T10:16:55.909Z,99710.36
2018-09-26T10:17:59.281Z,99712.88
2018-09-26T10:19:02.037Z,99723.39
2018-09-26T10:20:04.967Z,99719.14
2018-09-26T10:21:08.090Z,99722.54
2018-09-26T10:22:11.513Z,99713.72
2018-09-26T10:23:14.448Z,99710.05
2018-09-26T10:24:17.338Z,99721.95
2018-09-26T10:25:20.405Z,99710.59
2018-09-26T10:26:23.173Z,99709.30
2018-09-26T10:27:26.481Z,99714.27
2018-09-26T10:28:30.758Z,99719.22
2018-09-26T10:29:33.520Z,99717.39
2018-09-26T10:30:40.515Z,99709.09
2018-09-26T10:43:31.638Z,99704.61
2018-09-26T10:44:35.649Z,99704.28
2018-09-26T10:45:38.399Z,99702.91
2018-09-26T10:46:41.264Z,99702.27
2018-09-26T10:47:45.712Z,99701.58
2018-09-26T10:48:49.921Z,99692.42
2018-09-26T10:49:56.558Z,99689.83
2018-09-26T10:50:59.564Z,99695.70
2018-09-26T10:52:03.146Z,99693.44
2018-09-26T10:53:06.938Z,99695.59
2018-09-26T10:54:10.581Z,99692.91
2018-09-26T10:55:13.972Z,99693.09
2018-09-26T10:56:16.777Z,99685.13
2018-09-26T10:57:19.486Z,99688.02
2018-09-26T10:58:22.240Z,99686.20
2018-09-26T10:59:24.963Z,99683.04
2018-09-26T11:00:27.742Z,99689.59
2018-09-26T11:01:33.530Z,99682.55
2018-09-26T11:02:37.063Z,99692.75
2018-09-26T11:03:39.778Z,99688.23
2018-09-26T11:04:49.394Z,99686.61
2018-09-26T11:05:52.288Z,99681.48
2018-09-26T11:06:55.631Z,99677.53
2018-09-26T11:07:59.522Z,99676.66
2018-09-26T11:09:02.499Z,99677.12
2018-09-26T11:10:06.913Z,99676.67
2018-09-26T11:11:09.670Z,99668.35
2018-09-26T11:12:12.510Z,99669.36
2018-09-26T11:13:15.354Z,99675.59
2018-09-26T11:14:21.409Z,99675.12
2018-09-26T11:15:25.224Z,99672.70
2018-09-26T11:16:28.074Z,99672.14
2018-09-26T11:17:31.927Z,99681.98
2018-09-26T11:18:37.211Z,99683.49
2018-09-26T11:19:40.005Z,99683.15
2018-09-26T11:20:43.129Z,99678.13
2018-09-26T11:21:45.957Z,99681.91
2018-09-26T11:22:48.702Z,99685.08
2018-09-26T11:23:51.452Z,99677.78
2018-09-26T11:24:54.229Z,99673.80
2018-09-26T11:25:56.937Z,99672.37
2018-09-26T11:27:00.899Z,99668.41
2018-09-26T11:28:03.613Z,99673.36
2018-09-26T11:29:06.372Z,99673.64
2018-09-26T11:30:09.108Z,99672.38
2018-09-26T11:31:14.559Z,99665.84
2018-09-26T11:32:17.437Z,99668.83
2018-09-26T11:33:21.518Z,99662.23
2018-09-26T11:34:24.350Z,99658.80
2018-09-26T11:35:27.842Z,99658.63
2018-09-26T11:36:30.689Z,99653.75
2018-09-26T11:37:34.678Z,99660.13
2018-09-26T11:38:39.369Z,99649.89
2018-09-26T11:39:42.789Z,99652.75
2018-09-26T11:40:46.038Z,99644.07
2018-09-26T11:41:48.793Z,99645.89
2018-09-26T11:42:51.579Z,99646.74
2018-09-26T11:43:54.362Z,99650.80
2018-09-26T11:44:58.618Z,99647.58
2018-09-26T11:46:02.533Z,99642.84
2018-09-26T11:47:05.317Z,99645.44
2018-09-26T11:48:08.166Z,99642.50
2018-09-26T11:49:10.991Z,99641.95
2018-09-26T11:50:13.813Z,99639.98
2018-09-26T11:51:16.747Z,99642.14
2018-09-26T11:52:20.110Z,99632.09
2018-09-26T11:53:22.812Z,99633.14
2018-09-26T11:54:25.655Z,99634.27
2018-09-26T11:55:28.679Z,99636.23
2018-09-26T11:56:31.908Z,99636.78
2018-09-26T11:57:35.268Z,99639.38
2018-09-26T11:58:39.181Z,99647.39
2018-09-26T11:59:41.948Z,99649.06
2018-09-26T12:00:45.825Z,99646.87
2018-09-26T12:01:48.811Z,99648.10
2018-09-26T12:02:52.486Z,99645.34
2018-09-26T12:03:56.591Z,99638.25
2018-09-26T12:05:00.053Z,99641.60
2018-09-26T12:06:03.675Z,99641.34
2018-09-26T12:07:06.603Z,99636.83
2018-09-26T12:08:11.544Z,99631.38
2018-09-26T12:09:14.451Z,99633.11
2018-09-26T12:10:17.198Z,99630.43
2018-09-26T12:11:22.604Z,99632.94
2018-09-26T12:12:27.887Z,99628.95
2018-09-26T12:13:31.080Z,99635.84
2018-09-26T12:14:34.419Z,99632.59
2018-09-26T12:15:38.702Z,99628.42
2018-09-26T12:16:42.410Z,99627.92
2018-09-26T12:17:45.174Z,99626.32
2018-09-26T12:18:48.289Z,99628.13
2018-09-26T12:19:51.962Z,99626.72
2018-09-26T12:20:54.779Z,99623.90
2018-09-26T12:21:57.600Z,99618.52
2018-09-26T12:23:00.877Z,99621.26
2018-09-26T12:24:03.665Z,99614.73
2018-09-26T12:25:06.588Z,99623.32
2018-09-26T12:26:11.252Z,99618.55
2018-09-26T12:27:13.995Z,99610.48
2018-09-26T12:28:17.697Z,99612.38
2018-09-26T12:29:22.532Z,99616.20
2018-09-26T12:30:25.288Z,99609.38
2018-09-26T12:31:34.467Z,99612.13
2018-09-26T12:32:37.969Z,99616.98
2018-09-26T12:33:40.710Z,99613.84
2018-09-26T12:34:45.477Z,99609.79
2018-09-26T12:35:50.242Z,99615.70
2018-09-26T12:36:54.898Z,99617.58
2018-09-26T12:37:57.713Z,99618.83
2018-09-26T12:39:01.974Z,99621.36
2018-09-26T12:40:05.866Z,99609.36
2018-09-26T12:41:10.946Z,99606.89
2018-09-26T12:42:14.103Z,99598.13
2018-09-26T12:43:17.296Z,99599.73
2018-09-26T12:44:21.418Z,99605.13
2018-09-26T12:45:25.386Z,99601.41
2018-09-26T12:46:31.176Z,99600.79
2018-09-26T12:47:35.551Z,99603.89
2018-09-26T12:48:39.676Z,99601.79